Airfield :
LOGIN :

Register | Disclaimer

   EN    FR    IT 

 










Legend :    VFR   Marginal VFR   IFR   Intensive IFR   Very Intensive IFR
Visi :
Ceiling :
>= 8 km
>= 3000ft
5 to 8 km
1000 to 3000 ft
1500m to 5 km
500 to 1000 ft
800 to 1500m
200 to 500 ft
< 800m
< 200 ft
Symbols :   Thunderstorms  Fog  Heavy snow  Heavy precipitations  Wind > 20 kt
SIGMETs :     Misc.  Thunderstorms  Icing  Turbulence  Mountain Waves  Volcanic Ashes






- Airport Elevation : 489 ft
- IATA code : GDN


EPGD - Gdansk

CURRENT METAR :
  • 212230Z 21003KT 2700 0500W BCFG BR NSC 13/13 Q1019

EXPIRED METARs :
  • 212200Z 23005KT 2900 BR NSC 13/12 Q1020
  • 212130Z 22004KT 2000 BR NSC 12/11 Q1019
  • 212100Z 28005KT 1900 BR NSC 12/12 Q1019
  • 212030Z 19003KT 150V240 2600 BR NSC 12/12 Q1019
  • 212000Z VRB01KT 1800 0500W PRFG BR FEW000 11/11 Q1019

TAF AMD TAF EPGD
Valid from the 21 at 20:00 until the 22 at 18:00 UTC


212045Z 2120/2218 VRB02KT 3000 BR NSC
PROB40
TEMPO 2120/2207 1500 BR OVC002
BECMG 2207/2209 9999 BKN005 BKN012
BECMG 2209/2211 BKN014
BECMG 2211/2214 CAVOK



MET'MAP, your aeronautical weather chart ! - Copyright ORBIFLY December 2007 - Disclaimer

ORBIFLY MET'MAP TEAM :

Programming & Development : Alexandra Zaïnal
Concept & Development : Baudouin d'Aumeries
Co-Development & Prog : Marc-Olivier Méhu
Technical & hardware support : Manuel Goepfert

Contact : metmap@orbifly.com




SOURCES & CREDITS :

   NOAA